Time;durP1;ratioP1;P1;durP2;ratioP2;P2;SDS_P1;SDS_P2;PMS_P1;PMS_P2;Temp;Humidity;BMP_temperature;BMP_pressure;BME280_temperature;BME280_humidity;BME280_pressure;Samples;Min_cycle;Max_cycle;Signal;HPM_P1;HPM_P2
2023/01/15 00:00:04;;;;;;;2.63;0.50;;;8.90;99.90;;;8.33;100.00;96041.38;5006013;28;20124;-67
2023/01/15 00:02:31;;;;;;;0.77;0.32;;;8.90;99.90;;;8.47;100.00;96070.81;5009957;28;20520;-67
2023/01/15 00:05:01;;;;;;;1.60;0.50;;;8.90;99.90;;;8.56;100.00;96101.31;5004886;28;20591;-67
2023/01/15 00:07:30;;;;;;;1.05;0.40;;;9.00;99.90;;;8.53;100.00;96124.75;5002354;28;20057;-67
2023/01/15 00:09:57;;;;;;;2.65;0.40;;;9.00;99.90;;;8.46;100.00;96128.59;5011948;28;20078;-67
2023/01/15 00:12:24;;;;;;;1.20;0.40;;;8.90;99.90;;;8.48;100.00;96119.00;5006442;28;20054;-68
2023/01/15 00:14:51;;;;;;;1.15;0.40;;;8.90;99.90;;;8.50;100.00;96148.22;5004382;28;20568;-69
2023/01/15 00:17:18;;;;;;;1.35;0.40;;;8.90;99.90;;;8.58;100.00;96094.31;4999884;28;20050;-68
2023/01/15 00:19:46;;;;;;;0.95;0.45;;;8.90;99.90;;;8.51;100.00;96049.03;5000489;28;20092;-67
2023/01/15 00:22:12;;;;;;;3.45;0.60;;;8.90;99.90;;;8.48;100.00;96085.41;5002880;28;20089;-68
2023/01/15 00:27:39;;;;;;;0.63;0.40;;;8.80;99.90;;;8.38;100.00;96066.97;5002752;28;20137;-67
2023/01/15 00:30:11;;;;;;;2.83;0.50;;;8.90;99.90;;;8.38;100.00;96116.94;5001567;28;20476;-67
2023/01/15 00:32:39;;;;;;;2.45;0.50;;;8.90;99.90;;;8.47;100.00;96053.53;4998657;28;20049;-67
2023/01/15 00:35:15;;;;;;;1.48;0.50;;;8.80;99.90;;;8.37;100.00;96094.59;5001973;28;20054;-68
2023/01/15 00:37:43;;;;;;;3.20;0.50;;;8.80;99.90;;;8.36;100.00;96048.13;4999782;28;20058;-67
2023/01/15 00:40:11;;;;;;;1.83;0.50;;;8.80;99.90;;;8.36;100.00;96015.34;4998751;28;20076;-67
2023/01/15 00:42:39;;;;;;;0.55;0.40;;;8.80;99.90;;;8.50;100.00;96031.84;5001363;28;20084;-68
2023/01/15 00:45:09;;;;;;;2.17;0.52;;;8.90;99.90;;;8.48;100.00;96054.38;5003729;28;20045;-67
2023/01/15 00:47:42;;;;;;;1.00;0.40;;;8.90;99.90;;;8.52;100.00;96092.88;5000406;28;20057;-67
2023/01/15 00:50:13;;;;;;;0.65;0.40;;;8.90;99.90;;;8.55;100.00;96064.28;5004322;28;20045;-67
2023/01/15 00:52:40;;;;;;;1.05;0.40;;;8.90;99.90;;;8.46;100.00;96067.41;5010035;28;20081;-67
2023/01/15 00:55:08;;;;;;;1.15;0.40;;;8.90;99.90;;;8.43;100.00;96028.78;5003101;28;20058;-67
2023/01/15 00:57:35;;;;;;;2.67;0.45;;;8.90;99.90;;;8.49;100.00;96027.59;5000795;28;20329;-68
2023/01/15 01:00:03;;;;;;;1.50;0.40;;;8.90;99.90;;;8.45;100.00;96003.66;5001213;28;20046;-67
2023/01/15 01:02:30;;;;;;;2.22;0.50;;;8.90;99.90;;;8.39;100.00;96024.66;5005142;28;20057;-67
2023/01/15 01:04:57;;;;;;;0.93;0.30;;;8.90;99.90;;;8.44;100.00;95993.41;5004314;28;20116;-67
2023/01/15 01:07:24;;;;;;;1.70;0.57;;;9.00;99.90;;;8.40;100.00;95995.38;4989274;28;20050;-67
2023/01/15 01:09:51;;;;;;;2.15;0.50;;;8.90;99.90;;;8.56;100.00;95995.28;5005967;28;20830;-68
2023/01/15 01:12:20;;;;;;;1.42;0.50;;;8.90;99.90;;;8.41;100.00;96002.19;5011087;28;20054;-67
2023/01/15 01:14:47;;;;;;;1.85;0.60;;;9.00;99.90;;;8.42;100.00;96037.47;5008459;28;20507;-67
2023/01/15 01:17:13;;;;;;;1.60;0.47;;;8.90;99.90;;;8.48;100.00;96025.91;5008819;28;20128;-67
2023/01/15 01:19:40;;;;;;;1.80;0.50;;;9.00;99.90;;;8.50;100.00;96105.06;5009688;28;20038;-67
2023/01/15 01:22:07;;;;;;;1.42;0.50;;;9.00;99.90;;;8.48;100.00;96082.81;4993025;28;20520;-68
2023/01/15 01:24:34;;;;;;;1.60;0.40;;;8.90;99.90;;;8.44;100.00;96089.06;5011399;28;20506;-67
2023/01/15 01:27:01;;;;;;;2.70;0.60;;;9.00;99.90;;;8.50;100.00;96068.03;5009582;28;20059;-68
2023/01/15 01:29:28;;;;;;;3.97;0.50;;;9.00;99.90;;;8.60;100.00;96079.53;5007133;28;20053;-68
2023/01/15 01:31:55;;;;;;;1.20;0.50;;;8.90;99.90;;;8.61;100.00;96093.28;5007563;28;20049;-67
2023/01/15 01:34:22;;;;;;;0.77;0.40;;;9.00;99.90;;;8.54;100.00;96070.34;5007835;28;20410;-68
2023/01/15 01:36:49;;;;;;;0.75;0.40;;;8.90;99.90;;;8.71;100.00;96082.31;5009006;28;20049;-68
2023/01/15 01:39:18;;;;;;;1.40;0.50;;;9.00;99.90;;;8.69;100.00;96084.16;5005642;28;20515;-68
2023/01/15 01:41:47;;;;;;;0.77;0.40;;;9.00;99.90;;;8.54;100.00;96072.94;5009960;28;20058;-68
2023/01/15 01:44:32;;;;;;;1.55;0.30;;;8.90;99.90;;;8.48;100.00;96083.63;5009779;28;20065;-68
2023/01/15 01:47:26;;;;;;;0.60;0.30;;;8.90;99.90;;;8.50;100.00;96076.63;5008428;28;20054;-68
2023/01/15 01:50:05;;;;;;;1.75;0.30;;;8.90;99.90;;;8.44;100.00;96084.75;5006270;28;20073;-68
2023/01/15 01:52:49;;;;;;;0.70;0.38;;;8.80;99.90;;;8.55;100.00;96091.88;5012539;28;20068;-68
2023/01/15 01:55:20;;;;;;;1.23;0.30;;;8.80;99.90;;;8.50;100.00;96089.56;5011099;28;20063;-68
2023/01/15 01:57:50;;;;;;;0.45;0.22;;;8.80;99.90;;;8.42;100.00;96094.34;5011115;28;20042;-68
2023/01/15 02:00:18;;;;;;;0.63;0.28;;;8.70;99.90;;;8.14;100.00;96108.81;5006397;28;20069;-68
2023/01/15 02:02:47;;;;;;;0.95;0.30;;;8.60;99.90;;;8.12;100.00;96096.91;5006227;28;20069;-68
2023/01/15 02:05:27;;;;;;;0.88;0.30;;;8.50;99.90;;;8.18;100.00;96099.13;4990988;28;20050;-68
2023/01/15 02:07:54;;;;;;;0.57;0.30;;;8.40;99.90;;;8.14;100.00;96084.72;5009026;28;20049;-68
2023/01/15 02:10:21;;;;;;;0.85;0.30;;;8.40;99.90;;;7.92;100.00;96072.19;5009342;28;20054;-68
2023/01/15 02:13:31;;;;;;;2.00;0.30;;;8.40;99.90;;;7.77;100.00;96080.78;5006768;28;20055;-68
2023/01/15 02:16:10;;;;;;;0.20;0.20;;;8.30;99.90;;;7.75;100.00;96070.53;5009771;28;20572;-68
2023/01/15 02:18:57;;;;;;;0.57;0.20;;;8.20;99.90;;;7.70;100.00;96070.78;5015752;28;20052;-68
2023/01/15 02:21:49;;;;;;;0.60;0.20;;;8.10;99.90;;;7.68;100.00;96056.28;5010059;28;20042;-68
2023/01/15 02:24:25;;;;;;;1.10;0.30;;;8.10;99.90;;;7.73;100.00;96054.28;5011372;28;20046;-68
2023/01/15 02:27:22;;;;;;;0.80;0.20;;;8.10;99.90;;;7.50;100.00;96048.66;5013554;28;20048;-68
2023/01/15 02:30:01;;;;;;;0.15;0.15;;;8.00;99.90;;;7.50;100.00;96040.06;4998539;28;20097;-68
2023/01/15 02:32:44;;;;;;;0.52;0.20;;;8.00;99.90;;;7.47;100.00;96042.81;5008434;28;20153;-68
2023/01/15 02:35:23;;;;;;;1.23;0.30;;;8.00;99.90;;;7.40;100.00;96044.91;5005270;28;20045;-68
2023/01/15 02:37:54;;;;;;;0.38;0.20;;;7.90;99.90;;;7.36;100.00;96037.41;5008013;28;21412;-68
2023/01/15 02:40:23;;;;;;;0.40;0.22;;;7.90;99.90;;;7.36;100.00;96037.41;5008053;28;20684;-68
2023/01/15 02:42:51;;;;;;;0.60;0.30;;;7.80;99.90;;;7.38;100.00;96039.00;5007243;28;20159;-68
2023/01/15 02:45:27;;;;;;;0.30;0.25;;;7.80;99.90;;;7.33;100.00;96051.31;5005903;28;20056;-68
2023/01/15 02:48:01;;;;;;;0.22;0.20;;;7.70;99.90;;;7.06;100.00;96049.28;4995179;28;20137;-68
2023/01/15 02:50:36;;;;;;;0.47;0.22;;;7.70;99.90;;;7.04;100.00;96058.84;4997329;28;20050;-68
2023/01/15 02:53:08;;;;;;;1.15;0.30;;;7.60;99.90;;;7.10;100.00;96053.38;5004326;28;20056;-68
2023/01/15 02:55:42;;;;;;;0.88;0.30;;;7.60;99.90;;;7.01;100.00;96064.19;5014252;28;20111;-68
2023/01/15 02:58:14;;;;;;;0.52;0.30;;;7.50;99.90;;;6.95;100.00;96071.41;4989197;28;20053;-68
2023/01/15 03:00:48;;;;;;;0.40;0.20;;;7.50;99.90;;;7.13;100.00;96055.78;5010782;28;20420;-67
2023/01/15 03:03:33;;;;;;;0.20;0.20;;;7.50;99.90;;;6.89;100.00;96075.16;5010310;28;20057;-68
2023/01/15 03:06:10;;;;;;;0.50;0.30;;;7.40;99.90;;;6.76;100.00;96087.84;5008551;28;20891;-68
2023/01/15 03:08:37;;;;;;;2.10;0.60;;;7.40;99.90;;;6.77;100.00;96086.91;5009512;28;20054;-68
2023/01/15 03:11:09;;;;;;;0.68;0.30;;;7.40;99.90;;;6.71;100.00;96094.97;5012037;28;20061;-68
2023/01/15 03:14:05;;;;;;;0.73;0.32;;;7.40;99.90;;;6.87;100.00;96077.81;5010080;28;20513;-68
2023/01/15 03:16:33;;;;;;;0.95;0.40;;;7.30;99.90;;;6.77;100.00;96093.81;5008576;28;20144;-68
2023/01/15 03:19:04;;;;;;;0.95;0.32;;;7.30;99.90;;;6.67;100.00;96094.28;5008432;28;20061;-69
2023/01/15 03:22:16;;;;;;;2.22;0.60;;;7.30;99.90;;;6.73;100.00;96105.19;5025571;28;20049;-68
2023/01/15 03:24:52;;;;;;;0.85;0.30;;;7.30;99.90;;;6.66;100.00;96105.53;5012179;28;20046;-68
2023/01/15 03:27:20;;;;;;;0.73;0.30;;;7.30;99.90;;;6.85;100.00;96115.72;5005595;28;20060;-68
2023/01/15 03:30:00;;;;;;;0.30;0.30;;;7.30;99.90;;;6.68;100.00;96095.13;5008961;28;20054;-68
2023/01/15 03:32:30;;;;;;;0.88;0.40;;;7.20;99.90;;;6.60;100.00;96105.84;5002197;28;20141;-68
2023/01/15 03:34:59;;;;;;;0.32;0.20;;;7.20;99.90;;;6.64;100.00;96109.09;5010310;28;20083;-68
2023/01/15 03:37:27;;;;;;;1.05;0.30;;;7.10;99.90;;;6.56;100.00;96116.38;5013538;28;20589;-68
2023/01/15 03:39:56;;;;;;;0.68;0.22;;;7.10;99.90;;;6.48;100.00;96111.63;5007298;28;20402;-68
2023/01/15 03:43:39;;;;;;;1.10;0.40;;;7.10;99.90;;;6.53;100.00;96121.69;5007703;28;20121;-68
2023/01/15 03:45:42;;;;;;;0.65;0.30;;;7.10;99.90;;;6.47;100.00;96121.06;5008735;28;20645;-68
2023/01/15 03:48:33;;;;;;;0.35;0.28;;;7.00;99.90;;;6.57;100.00;96130.91;4991632;28;20051;-68
2023/01/15 03:51:12;;;;;;;2.17;0.20;;;6.90;99.90;;;6.25;100.00;96148.81;5011060;28;20607;-69
2023/01/15 03:53:49;;;;;;;0.60;0.30;;;6.90;99.90;;;6.16;100.00;96162.13;5015301;28;20056;-68
2023/01/15 03:56:28;;;;;;;2.83;0.50;;;6.90;99.90;;;6.30;100.00;96152.00;5011254;28;20057;-68
2023/01/15 03:59:06;;;;;;;1.45;0.20;;;6.80;99.90;;;6.06;100.00;96152.25;5009863;28;20164;-68
2023/01/15 04:01:38;;;;;;;0.20;0.20;;;6.70;99.90;;;6.00;100.00;96162.88;5002846;28;20046;-68
2023/01/15 04:04:06;;;;;;;0.20;0.20;;;6.50;99.90;;;5.95;100.00;96135.66;5011275;28;20419;-68
2023/01/15 04:06:37;;;;;;;0.50;0.30;;;6.50;99.90;;;5.82;100.00;96141.34;5008621;28;20046;-67
2023/01/15 04:09:08;;;;;;;0.20;0.20;;;6.30;99.90;;;5.62;100.00;96131.97;5009839;28;20053;-68
2023/01/15 04:11:35;;;;;;;0.20;0.20;;;6.30;99.90;;;5.77;100.00;96130.44;5003172;28;20046;-67
2023/01/15 04:14:03;;;;;;;0.75;0.20;;;6.20;99.90;;;5.60;100.00;96133.78;5007056;28;20125;-68
2023/01/15 04:16:33;;;;;;;0.28;0.20;;;6.20;99.90;;;5.65;100.00;96110.41;5010373;28;20055;-67
2023/01/15 04:19:00;;;;;;;0.30;0.20;;;6.10;99.90;;;5.47;100.00;96124.13;5007731;28;20048;-67
2023/01/15 04:21:27;;;;;;;0.82;0.32;;;6.10;99.90;;;5.53;100.00;96116.94;5011547;28;20136;-67
2023/01/15 04:23:54;;;;;;;1.20;0.30;;;6.00;99.90;;;5.50;100.00;96121.41;5011095;28;20053;-68
2023/01/15 04:26:21;;;;;;;0.32;0.30;;;6.00;99.90;;;5.51;100.00;96125.66;5011333;28;20046;-67
2023/01/15 04:28:48;;;;;;;1.02;0.50;;;6.00;99.90;;;5.30;100.00;96145.47;5006893;28;20073;-68
2023/01/15 04:31:15;;;;;;;2.08;0.50;;;5.90;99.90;;;5.31;100.00;96144.56;5005208;28;20504;-68
2023/01/15 04:33:42;;;;;;;1.05;0.43;;;5.90;99.90;;;5.18;100.00;96164.84;5002913;28;20141;-67
2023/01/15 04:36:10;;;;;;;1.45;0.60;;;5.80;99.90;;;5.15;100.00;96162.41;5005698;28;20061;-67
2023/01/15 04:38:37;;;;;;;0.68;0.38;;;5.80;99.90;;;5.13;100.00;96171.91;5011386;28;20049;-68
2023/01/15 04:44:05;;;;;;;1.58;0.40;;;5.70;99.90;;;5.01;100.00;96189.53;5007451;28;20052;-67
2023/01/15 04:46:44;;;;;;;1.90;0.50;;;5.70;99.90;;;4.88;100.00;96198.72;5011220;28;20049;-67
2023/01/15 04:49:15;;;;;;;0.85;0.40;;;5.60;99.90;;;5.07;100.00;96185.88;5027893;28;20058;-68
2023/01/15 04:51:43;;;;;;;1.48;0.30;;;5.60;99.90;;;4.88;100.00;96185.00;5010724;28;20091;-67
2023/01/15 04:54:13;;;;;;;3.65;0.47;;;5.50;99.90;;;4.80;100.00;96181.00;5011886;28;20504;-67
2023/01/15 04:56:50;;;;;;;0.88;0.30;;;5.50;99.90;;;4.73;100.00;96182.19;5011172;28;20140;-67
2023/01/15 04:59:21;;;;;;;0.47;0.30;;;5.40;99.90;;;4.75;100.00;96185.50;5010824;28;20049;-68
2023/01/15 05:01:49;;;;;;;1.63;0.40;;;5.40;99.90;;;4.74;100.00;96193.28;5013183;28;20083;-67
2023/01/15 05:04:28;;;;;;;0.55;0.30;;;5.40;99.90;;;4.75;100.00;96200.13;5007142;28;20053;-68
2023/01/15 05:06:55;;;;;;;1.27;0.40;;;5.30;99.90;;;4.77;100.00;96194.00;5011043;28;20164;-68
2023/01/15 05:09:22;;;;;;;2.20;0.45;;;5.30;99.90;;;4.77;100.00;96203.47;5010458;28;20096;-68
2023/01/15 05:11:49;;;;;;;0.95;0.47;;;5.30;99.90;;;4.92;100.00;96220.78;5008783;28;20050;-67
2023/01/15 05:14:16;;;;;;;2.85;0.47;;;5.30;99.90;;;4.87;100.00;96229.59;5005592;28;20060;-68
2023/01/15 05:16:43;;;;;;;2.40;0.60;;;5.30;99.90;;;4.66;100.00;96208.19;5008984;28;20052;-67
2023/01/15 05:19:10;;;;;;;1.50;0.40;;;5.30;99.90;;;4.57;100.00;96228.22;5009298;28;20411;-67
2023/01/15 05:21:42;;;;;;;3.88;0.40;;;5.30;99.90;;;4.76;100.00;96242.91;5007004;28;20492;-67
2023/01/15 05:24:14;;;;;;;0.40;0.30;;;5.30;99.90;;;4.71;100.00;96225.09;5006999;28;20057;-67
2023/01/15 05:26:42;;;;;;;0.50;0.40;;;5.30;99.90;;;4.56;100.00;96242.00;5012348;28;20045;-67
2023/01/15 05:29:10;;;;;;;0.57;0.32;;;5.20;99.90;;;4.64;100.00;96245.97;5015245;28;20054;-67
2023/01/15 05:31:38;;;;;;;0.47;0.30;;;5.20;99.90;;;4.62;100.00;96235.75;5009387;28;20069;-67
2023/01/15 05:34:05;;;;;;;0.98;0.40;;;5.20;99.90;;;4.64;100.00;96230.56;5012163;28;20052;-67
2023/01/15 05:36:32;;;;;;;0.57;0.32;;;5.20;99.90;;;4.52;100.00;96221.63;5015222;28;20646;-67
2023/01/15 05:39:00;;;;;;;0.60;0.28;;;5.20;99.90;;;4.49;100.00;96209.69;5002471;28;20057;-67
2023/01/15 05:44:20;;;;;;;0.40;0.20;;;5.10;99.90;;;4.60;100.00;96209.28;5009378;28;20038;-67
2023/01/15 05:46:49;;;;;;;1.75;0.55;;;5.10;99.90;;;4.51;100.00;96217.34;5008689;28;20046;-68
2023/01/15 05:49:20;;;;;;;1.40;0.30;;;5.10;99.90;;;4.52;100.00;96221.63;5006943;28;20081;-68
2023/01/15 05:51:48;;;;;;;0.30;0.30;;;5.10;99.90;;;4.60;100.00;96222.13;5010610;28;20056;-68
2023/01/15 05:54:24;;;;;;;1.95;0.30;;;5.10;99.90;;;4.54;100.00;96237.81;5009491;28;20670;-68
2023/01/15 05:56:52;;;;;;;0.22;0.20;;;5.10;99.90;;;4.47;100.00;96262.91;5009327;28;20053;-68
2023/01/15 05:59:23;;;;;;;0.30;0.30;;;5.10;99.90;;;4.38;100.00;96294.09;5015419;28;20077;-68
2023/01/15 06:01:52;;;;;;;0.30;0.30;;;5.10;99.90;;;4.37;100.00;96285.53;5014391;28;20042;-68
2023/01/15 06:04:23;;;;;;;0.75;0.30;;;5.10;99.90;;;4.22;100.00;96277.56;5014891;28;20073;-69
2023/01/15 06:06:53;;;;;;;0.30;0.30;;;5.00;99.90;;;4.35;100.00;96283.94;5010929;28;20604;-68
2023/01/15 06:09:21;;;;;;;0.20;0.20;;;5.00;99.90;;;4.27;100.00;96286.81;5006102;28;20058;-68
2023/01/15 06:11:50;;;;;;;0.63;0.30;;;4.90;99.90;;;4.29;100.00;96290.16;5005060;28;20046;-68
2023/01/15 06:14:17;;;;;;;0.73;0.30;;;4.90;99.90;;;4.19;100.00;96306.78;5010852;28;20058;-68
2023/01/15 06:16:45;;;;;;;0.30;0.30;;;4.80;99.90;;;4.17;100.00;96296.59;5016529;28;20182;-68
2023/01/15 06:19:13;;;;;;;0.43;0.25;;;4.80;99.90;;;4.21;100.00;96281.88;5012947;28;20053;-68
2023/01/15 06:21:40;;;;;;;0.35;0.30;;;4.80;99.90;;;4.25;100.00;96275.75;5011580;28;20516;-68
2023/01/15 06:24:08;;;;;;;1.17;0.30;;;4.70;99.90;;;4.15;100.00;96282.09;5010156;28;20796;-68
2023/01/15 06:26:36;;;;;;;2.38;0.40;;;4.80;99.90;;;4.09;100.00;96284.94;5000529;28;20600;-68
2023/01/15 06:29:03;;;;;;;0.20;0.20;;;4.80;99.90;;;4.06;100.00;96285.88;5007568;28;20065;-68
2023/01/15 06:31:31;;;;;;;0.90;0.20;;;4.80;99.90;;;4.06;100.00;96285.88;5006778;28;20060;-68
2023/01/15 06:33:58;;;;;;;0.57;0.30;;;4.70;99.90;;;4.06;100.00;96280.75;5009949;28;20058;-68
2023/01/15 06:36:26;;;;;;;0.40;0.30;;;4.70;99.90;;;4.03;100.00;96300.56;5007628;28;20050;-68
2023/01/15 06:38:54;;;;;;;1.48;0.28;;;4.70;99.90;;;4.03;100.00;96282.59;5010896;28;20041;-68
2023/01/15 06:47:19;;;;;;;0.30;0.20;;;4.60;99.90;;;4.02;100.00;96289.47;5012364;28;20054;-68
2023/01/15 06:49:56;;;;;;;2.20;0.20;;;4.60;99.90;;;4.00;100.00;96321.22;4999528;28;20054;-68
2023/01/15 06:52:26;;;;;;;0.60;0.20;;;4.60;99.90;;;3.92;100.00;96324.03;4999705;28;20061;-68
2023/01/15 06:54:53;;;;;;;0.50;0.20;;;4.60;99.90;;;3.98;100.00;96341.81;5012992;28;20060;-68
2023/01/15 06:57:20;;;;;;;0.20;0.20;;;4.60;99.90;;;3.89;100.00;96335.25;5016344;28;20181;-68
2023/01/15 06:59:48;;;;;;;0.30;0.20;;;4.60;99.90;;;3.84;100.00;96337.16;5010377;28;20053;-68
2023/01/15 07:02:16;;;;;;;0.35;0.20;;;4.60;99.90;;;3.83;100.00;96366.31;5011720;28;20164;-67
2023/01/15 07:04:45;;;;;;;0.60;0.30;;;4.60;99.90;;;3.96;100.00;96338.44;5015072;28;20055;-68
2023/01/15 07:07:17;;;;;;;0.73;0.30;;;4.60;99.90;;;3.84;100.00;96339.72;5015085;28;20054;-67
2023/01/15 07:09:44;;;;;;;0.35;0.30;;;4.50;99.90;;;3.86;100.00;96352.53;5009944;28;20154;-68
2023/01/15 07:12:11;;;;;;;1.90;0.40;;;4.50;99.90;;;3.83;100.00;96352.63;5011930;28;20054;-67
2023/01/15 07:14:38;;;;;;;1.60;0.32;;;4.50;99.90;;;3.76;100.00;96354.56;5012881;28;20459;-68
2023/01/15 07:17:05;;;;;;;0.38;0.30;;;4.40;99.90;;;3.85;100.00;96364.50;5011625;28;20054;-68
2023/01/15 07:19:32;;;;;;;0.68;0.40;;;4.40;99.90;;;3.84;100.00;96365.41;5013239;28;20044;-68
2023/01/15 07:21:59;;;;;;;0.60;0.40;;;4.40;99.90;;;3.92;100.00;96363.41;5012056;28;20571;-68
2023/01/15 07:24:26;;;;;;;0.82;0.30;;;4.40;99.90;;;3.77;100.00;96357.06;5009549;28;20050;-68
2023/01/15 07:26:53;;;;;;;0.88;0.38;;;4.40;99.90;;;3.86;100.00;96367.94;5005656;28;20045;-68
2023/01/15 07:29:22;;;;;;;0.80;0.40;;;4.40;99.90;;;3.81;100.00;96378.34;5008957;28;20069;-67
2023/01/15 07:31:50;;;;;;;0.28;0.20;;;4.40;99.90;;;3.86;100.00;96358.50;5007172;28;20107;-68
2023/01/15 07:34:17;;;;;;;1.77;0.40;;;4.40;99.90;;;3.76;100.00;96368.25;5010587;28;20579;-67
2023/01/15 07:36:45;;;;;;;0.68;0.30;;;4.40;99.90;;;3.76;100.00;96377.66;5014561;28;20060;-68
2023/01/15 07:39:12;;;;;;;1.25;0.40;;;4.40;99.90;;;3.87;100.00;96385.00;5012893;28;20156;-68
2023/01/15 07:50:20;;;;;;;1.55;0.40;;;4.50;99.90;;;3.88;100.00;96417.50;5015149;28;20045;-68
2023/01/15 07:52:47;;;;;;;1.42;0.45;;;4.40;99.90;;;3.96;100.00;96411.16;5013825;28;20373;-68
2023/01/15 07:55:14;;;;;;;0.95;0.40;;;4.40;99.90;;;3.96;100.00;96402.63;5012836;28;20049;-68
2023/01/15 07:57:42;;;;;;;1.13;0.50;;;4.50;99.90;;;3.91;100.00;96407.94;5009601;28;20583;-68
2023/01/15 08:00:18;;;;;;;1.95;0.50;;;4.40;99.90;;;3.87;100.00;96446.59;5007758;28;20145;-68
2023/01/15 08:02:48;;;;;;;2.55;0.50;;;4.50;99.90;;;3.95;100.00;96406.09;5011740;28;20050;-68
2023/01/15 08:05:16;;;;;;;1.95;0.45;;;4.50;99.90;;;3.84;100.00;96421.88;5006198;28;20136;-67
2023/01/15 08:07:44;;;;;;;1.92;0.60;;;4.50;99.90;;;3.87;100.00;96414.06;5010463;28;20057;-67
2023/01/15 08:10:13;;;;;;;0.98;0.45;;;4.40;99.90;;;3.89;100.00;96402.00;5008610;28;20058;-68
2023/01/15 08:15:31;;;;;;;3.60;0.85;;;4.40;99.90;;;3.92;100.00;96425.03;5011095;28;20436;-67
2023/01/15 08:17:58;;;;;;;6.33;1.20;;;4.40;99.90;;;3.87;100.00;96442.28;5015059;28;20140;-68
2023/01/15 08:20:25;;;;;;;5.13;0.98;;;4.40;99.90;;;3.86;100.00;96425.22;5012384;28;20056;-67
2023/01/15 08:22:52;;;;;;;3.65;0.73;;;4.50;99.90;;;3.81;100.00;96434.81;5012667;28;20053;-67
2023/01/15 08:25:23;;;;;;;1.33;0.70;;;4.50;99.90;;;3.89;100.00;96439.69;5011846;28;20153;-68
2023/01/15 08:27:51;;;;;;;3.80;0.52;;;4.50;99.90;;;3.86;100.00;96439.81;5010745;28;20046;-67
2023/01/15 08:30:24;;;;;;;4.05;0.77;;;4.40;99.90;;;3.99;100.00;96438.47;5011166;28;20056;-68
2023/01/15 08:32:51;;;;;;;2.83;0.80;;;4.40;99.90;;;3.83;100.00;96447.59;5009967;28;20054;-68
2023/01/15 08:35:18;;;;;;;5.82;1.30;;;4.40;99.90;;;3.91;100.00;96446.44;5014802;28;20057;-67
2023/01/15 08:37:45;;;;;;;2.28;0.60;;;4.50;99.90;;;3.94;100.00;96448.06;5014305;28;20130;-68
2023/01/15 08:40:12;;;;;;;4.68;0.80;;;4.50;99.90;;;3.88;100.00;96463.69;5009450;28;20050;-68
2023/01/15 08:42:39;;;;;;;3.97;0.65;;;4.40;99.90;;;3.83;100.00;96460.41;5019882;28;20049;-67
2023/01/15 08:45:08;;;;;;;3.05;0.70;;;4.50;99.90;;;4.05;100.00;96443.41;5017943;28;20129;-68
2023/01/15 08:47:36;;;;;;;2.85;0.77;;;4.60;99.90;;;3.91;100.00;96458.44;5014828;28;20143;-67
2023/01/15 08:50:06;;;;;;;4.43;0.90;;;4.60;99.90;;;3.93;100.00;96459.22;5011627;28;20053;-67
2023/01/15 08:52:33;;;;;;;5.10;0.90;;;4.60;99.90;;;4.01;100.00;96467.50;5016241;28;20050;-67
2023/01/15 08:55:00;;;;;;;4.28;0.85;;;4.60;99.90;;;3.92;100.00;96481.50;5010679;28;20064;-67
2023/01/15 08:57:27;;;;;;;3.55;0.68;;;4.60;99.90;;;4.00;100.00;96470.97;5016899;28;20049;-67
2023/01/15 08:59:54;;;;;;;2.20;0.60;;;4.70;99.90;;;3.83;100.00;96478.38;5011360;28;20056;-67
2023/01/15 09:02:21;;;;;;;5.15;0.70;;;4.70;99.90;;;3.90;100.00;96477.28;5014522;28;20057;-67
2023/01/15 09:04:48;;;;;;;4.93;1.08;;;4.80;99.90;;;3.98;100.00;96476.16;5016193;28;20042;-67
2023/01/15 09:07:15;;;;;;;6.47;0.88;;;4.70;99.90;;;3.89;100.00;96489.28;5006352;28;20149;-67
2023/01/15 09:09:42;;;;;;;1.60;0.50;;;4.80;99.90;;;4.03;100.00;96482.84;5010075;28;20057;-67
2023/01/15 09:12:09;;;;;;;3.45;0.60;;;4.80;99.90;;;4.02;100.00;96496.59;5012599;28;20061;-67
2023/01/15 09:14:36;;;;;;;1.67;0.80;;;4.80;99.90;;;4.17;100.00;96508.91;5012922;28;20061;-67
2023/01/15 09:17:23;;;;;;;4.57;1.15;;;4.80;99.90;;;4.28;100.00;96486.25;5017903;28;20061;-67
2023/01/15 09:19:50;;;;;;;1.90;0.65;;;4.80;99.90;;;3.97;100.00;96507.03;5017349;28;20050;-67
2023/01/15 09:22:17;;;;;;;4.68;2.05;;;4.80;99.90;;;4.03;100.00;96509.38;5021672;28;20050;-67
2023/01/15 09:24:45;;;;;;;2.65;0.90;;;4.90;99.90;;;4.31;100.00;96513.56;5015907;28;20501;-67
2023/01/15 09:27:12;;;;;;;1.77;0.60;;;4.80;99.90;;;4.17;100.00;96512.31;5016663;28;20101;-67
2023/01/15 09:29:39;;;;;;;5.40;1.17;;;4.80;99.90;;;4.23;100.00;96513.00;5017178;28;20064;-67
2023/01/15 09:32:08;;;;;;;3.25;0.70;;;4.80;99.90;;;4.22;100.00;96524.16;5013436;28;20156;-67
2023/01/15 09:34:35;;;;;;;5.18;1.05;;;4.80;99.90;;;4.20;100.00;96513.94;5014312;28;20104;-67
2023/01/15 09:37:02;;;;;;;3.97;1.33;;;4.90;99.90;;;4.09;100.00;96529.72;5021952;28;20053;-67
2023/01/15 09:39:30;;;;;;;4.28;0.90;;;4.90;99.90;;;4.21;100.00;96535.31;5017920;28;20057;-67
2023/01/15 09:42:09;;;;;;;2.97;0.50;;;4.90;99.90;;;4.28;100.00;96536.78;5009398;28;20053;-67
2023/01/15 09:45:07;;;;;;;2.55;0.98;;;5.00;99.90;;;4.19;100.00;96538.78;5021288;28;20124;-67
2023/01/15 09:48:13;;;;;;;5.78;1.10;;;4.90;99.90;;;4.29;100.00;96531.59;5018013;28;20423;-68
2023/01/15 09:51:21;;;;;;;4.60;1.13;;;5.00;99.90;;;4.40;100.00;96556.91;5011957;28;20068;-67
2023/01/15 09:54:14;;;;;;;5.28;0.80;;;4.90;99.90;;;4.26;100.00;96533.44;4993178;28;20051;-67
2023/01/15 09:56:44;;;;;;;2.75;0.70;;;4.90;99.90;;;4.36;100.00;96560.50;5022548;28;20076;-67
2023/01/15 09:59:31;;;;;;;1.88;0.50;;;4.90;99.90;;;4.36;100.00;96551.06;5018553;28;20111;-67
2023/01/15 10:02:14;;;;;;;4.63;1.30;;;4.80;99.90;;;4.26;100.00;96570.22;5012794;28;20045;-67
2023/01/15 10:04:47;;;;;;;4.45;0.77;;;4.90;99.90;;;4.15;100.00;96577.44;5017604;28;20162;-67
2023/01/15 10:07:48;;;;;;;2.72;0.50;;;5.00;99.90;;;4.17;100.00;96579.09;5005894;28;20050;-67
2023/01/15 10:10:20;;;;;;;3.75;0.60;;;5.00;99.90;;;4.26;100.00;96580.50;5013379;28;20069;-67
2023/01/15 10:12:50;;;;;;;4.18;0.57;;;;;;;4.13;100.00;96598.06;5012665;28;20049;-67
2023/01/15 10:15:35;;;;;;;3.72;0.77;;;5.00;99.90;;;4.31;100.00;96595.75;5006134;28;20071;-67
2023/01/15 10:18:06;;;;;;;4.25;1.30;;;5.10;99.90;;;4.24;100.00;96602.81;4984906;28;20045;-67
2023/01/15 10:20:59;;;;;;;4.78;0.85;;;5.00;99.90;;;4.29;100.00;96606.09;5016860;28;20141;-67
2023/01/15 10:24:04;;;;;;;1.88;0.50;;;5.00;99.90;;;4.14;100.00;96612.56;5010945;28;20050;-71
2023/01/15 10:26:41;;;;;;;5.15;0.60;;;;;;;4.24;100.00;96612.28;5003473;28;20049;-72
2023/01/15 10:29:36;;;;;;;2.38;0.80;;;5.10;99.90;;;4.33;100.00;96602.56;4994368;28;20059;-71
2023/01/15 10:32:38;;;;;;;1.38;0.50;;;5.10;99.90;;;4.40;100.00;96601.44;5002503;28;20046;-71
2023/01/15 10:35:13;;;;;;;;;;;5.10;99.90;;;4.20;100.00;96611.56;5000131;28;20081;-71
2023/01/15 10:37:53;;;;;;;6.18;0.80;;;5.00;99.90;;;4.21;100.00;96610.66;5001166;28;19929;-71
2023/01/15 10:40:38;;;;;;;2.42;0.63;;;5.00;99.90;;;4.16;100.00;96608.22;5019938;28;20512;-71
2023/01/15 10:43:29;;;;;;;2.15;0.40;;;5.00;99.90;;;4.32;100.00;96600.03;5005926;28;20045;-71
2023/01/15 10:46:01;;;;;;;4.13;0.60;;;4.90;99.90;;;4.23;100.00;96602.91;5008487;28;20049;-71
2023/01/15 10:48:39;;;;;;;2.03;0.60;;;5.00;99.90;;;4.08;100.00;96611.94;5002603;28;20050;-71
2023/01/15 10:51:33;;;;;;;3.80;0.80;;;5.00;99.90;;;4.13;100.00;96623.75;5001221;28;20413;-72
2023/01/15 10:54:13;;;;;;;2.83;0.57;;;5.10;99.90;;;4.21;100.00;96628.63;5014960;28;20149;-71
2023/01/15 10:56:52;;;;;;;3.88;0.55;;;5.00;99.90;;;4.12;100.00;96623.78;5006719;28;20149;-71
2023/01/15 10:59:46;;;;;;;3.90;0.55;;;5.00;99.90;;;3.98;100.00;96635.34;5001516;28;20054;-71
2023/01/15 11:02:41;;;;;;;3.55;0.70;;;4.90;99.90;;;3.94;100.00;96644.00;5022225;28;20053;-71
2023/01/15 11:05:19;;;;;;;4.38;0.63;;;4.80;99.90;;;3.91;100.00;96653.56;5071165;27;20489;-72
2023/01/15 11:07:51;;;;;;;3.97;0.60;;;4.70;99.90;;;3.88;100.00;96664.75;5031281;28;20052;-72
2023/01/15 11:10:39;;;;;;;4.00;1.02;;;4.50;99.90;;;3.75;100.00;96677.13;5037922;28;20045;-72
2023/01/15 11:19:36;;;;;;;2.92;1.13;;;4.20;99.90;;;3.23;100.00;96682.91;4992460;28;20056;-72
2023/01/15 11:22:17;;;;;;;3.42;1.00;;;3.90;99.90;;;2.89;100.00;96678.69;5025075;28;20156;-72